»·PEaware :: UAL1399 KGEG-KBOI

UAL1399 :: KGEG-KBOI

FLIGHT INFORMATION

Flight Status: Arrived
Operator:
United Airlines
More flights by this operator :: More flights under this callsign
Pilot: David C. (16084)
Aircraft: AIRBUS A320
(A320)
More flights by this aircraft type
Origin: KGEG Spokane Intl
United States
Destination: KBOI Boise Air Terminal/Gowen
United States
More flights between these airports :: More routes between these airports
Route: GEG V253 DNJ COLLR BEWTE3
File this flight plan on PilotEdge
Remarks:
Altitude:
(Current/Filed)
31,000ft
Speed:
(Current/Filed)
461kts
Departed: 11-Feb-18 12:50 PM
Arrived: 11-Feb-18 01:39 PM
Distance/Time
Traveled:
249nm/0:48
Distance/Time
To Go:
Arrived

Flight Plot

Page will automatically refresh every two minutes.

Flight plan parsing failed; only flown route is shown


Map Options




Map Legend


Flown Route
Filed Route
Departure Airport
Arrival Airport
Navaid (VOR, NDB)
Fix

Horizontal Profiles

Position Reports

Time Latitude Longitude Heading Altitude Ground
Speed
11-Feb-18 11:56 47.625219 -117.534250 331 2393ft 0kts
11-Feb-18 11:57 47.625219 -117.534250 331 2393ft 0kts
11-Feb-18 11:58 47.625219 -117.534250 331 2393ft 0kts
11-Feb-18 11:59 47.625219 -117.534250 331 2393ft 0kts
11-Feb-18 11:59 47.625219 -117.534250 331 2393ft 0kts
11-Feb-18 12:00 47.625219 -117.534250 331 2393ft 0kts
11-Feb-18 12:01 47.625219 -117.534250 331 2393ft 0kts
11-Feb-18 12:02 47.625219 -117.534250 331 2393ft 0kts
11-Feb-18 12:03 47.625219 -117.534250 331 2393ft 0kts
11-Feb-18 12:04 47.625219 -117.534250 331 2393ft 0kts
11-Feb-18 12:05 47.625219 -117.534250 331 2393ft 0kts
11-Feb-18 12:06 47.625219 -117.534250 331 2393ft 0kts
11-Feb-18 12:07 47.625219 -117.534250 331 2393ft 0kts
11-Feb-18 12:08 47.625219 -117.534250 331 2393ft 0kts
11-Feb-18 12:10 47.625219 -117.534250 331 2393ft 0kts
11-Feb-18 12:11 47.625219 -117.534250 331 2393ft 0kts
11-Feb-18 12:12 47.625219 -117.534250 331 2393ft 0kts
11-Feb-18 12:13 47.625219 -117.534250 331 2393ft 0kts
11-Feb-18 12:14 47.625219 -117.534250 331 2393ft 0kts
11-Feb-18 12:15 47.625219 -117.534250 331 2393ft 0kts
11-Feb-18 12:16 47.625219 -117.534250 331 2393ft 0kts
11-Feb-18 12:17 47.625219 -117.534250 331 2393ft 0kts
11-Feb-18 12:18 47.625219 -117.534250 331 2393ft 0kts
11-Feb-18 12:19 47.625219 -117.534250 331 2393ft 0kts
11-Feb-18 12:20 47.625219 -117.534250 331 2393ft 0kts
11-Feb-18 12:21 47.625219 -117.534250 331 2393ft 0kts
11-Feb-18 12:22 47.625219 -117.534250 331 2393ft 0kts
11-Feb-18 12:23 47.625219 -117.534250 331 2393ft 0kts
11-Feb-18 12:24 47.625219 -117.534250 331 2393ft 0kts
11-Feb-18 12:25 47.625219 -117.534250 331 2393ft 0kts
11-Feb-18 12:26 47.625219 -117.534250 331 2393ft 0kts
11-Feb-18 12:27 47.625219 -117.534250 331 2393ft 0kts
11-Feb-18 12:28 47.625219 -117.534250 331 2393ft 0kts
11-Feb-18 12:29 47.625219 -117.534250 331 2393ft 0kts
11-Feb-18 12:30 47.625219 -117.534250 331 2393ft 0kts
11-Feb-18 12:31 47.625219 -117.534250 331 2393ft 0kts
11-Feb-18 12:32 47.625219 -117.534250 331 2393ft 0kts
11-Feb-18 12:33 47.625219 -117.534250 331 2393ft 0kts
11-Feb-18 12:34 47.625219 -117.534250 331 2393ft 0kts
11-Feb-18 12:35 47.625219 -117.534250 331 2393ft 0kts
11-Feb-18 12:36 47.625219 -117.534250 331 2393ft 0kts
11-Feb-18 12:37 47.625219 -117.534250 331 2393ft 0kts
11-Feb-18 12:38 47.624902 -117.534151 33 2393ft 0kts
11-Feb-18 12:39 47.624963 -117.534099 45 2393ft 1kts
11-Feb-18 12:40 47.624896 -117.533818 267 2393ft 1kts
11-Feb-18 12:41 47.625054 -117.533415 222 2393ft 0kts
11-Feb-18 12:42 47.625053 -117.533415 222 2393ft 0kts
11-Feb-18 12:43 47.625053 -117.533415 222 2393ft 0kts
11-Feb-18 12:44 47.625053 -117.533415 222 2393ft 0kts
11-Feb-18 12:45 47.625053 -117.533415 222 2393ft 0kts
11-Feb-18 12:46 47.625053 -117.533415 222 2393ft 0kts
11-Feb-18 12:47 47.625053 -117.533415 222 2393ft 0kts
11-Feb-18 12:48 47.625053 -117.533415 222 2393ft 0kts
11-Feb-18 12:49 47.625053 -117.533415 222 2393ft 0kts
11-Feb-18 12:50 47.622931 -117.534786 225 2393ft 17kts
11-Feb-18 12:51 47.618694 -117.541164 225 2393ft 26kts
11-Feb-18 12:52 47.612977 -117.549726 225 2393ft 29kts
11-Feb-18 12:53 47.610873 -117.550985 130 2393ft 0kts
11-Feb-18 12:54 47.610873 -117.550985 130 2393ft 0kts
11-Feb-18 12:55 47.610873 -117.550985 130 2393ft 0kts
11-Feb-18 12:56 47.610599 -117.549303 45 2393ft 7kts
11-Feb-18 12:57 47.616284 -117.540767 44 2393ft 128kts
11-Feb-18 12:58 47.652550 -117.483961 45 4585ft 220kts
11-Feb-18 12:59 47.694851 -117.414883 45 8057ft 235kts
11-Feb-18 13:00 47.744864 -117.355160 4 11411ft 241kts
11-Feb-18 13:01 47.810891 -117.371426 332 14569ft 250kts
11-Feb-18 13:02 47.824650 -117.472469 240 15079ft 354kts
11-Feb-18 13:03 47.733926 -117.518697 168 17366ft 373kts
11-Feb-18 13:04 47.637635 -117.490114 169 20954ft 342kts
11-Feb-18 13:05 47.548460 -117.464783 170 23799ft 328kts
11-Feb-18 13:06 47.458172 -117.439536 171 25844ft 336kts
11-Feb-18 13:07 47.365421 -117.413664 172 27611ft 347kts
11-Feb-18 13:08 47.269459 -117.386973 172 29241ft 358kts
11-Feb-18 13:09 47.171604 -117.359822 172 30861ft 363kts
11-Feb-18 13:10 47.066806 -117.331035 173 30961ft 412kts
11-Feb-18 13:11 46.948746 -117.298578 172 30945ft 454kts
11-Feb-18 13:12 46.822005 -117.263818 171 30936ft 479kts
11-Feb-18 13:13 46.691481 -117.223441 161 30941ft 484kts
11-Feb-18 13:14 46.581791 -117.111314 141 30930ft 486kts
11-Feb-18 13:15 46.478110 -116.985663 142 30919ft 486kts
11-Feb-18 13:16 46.370955 -116.868757 158 30949ft 481kts
11-Feb-18 13:17 46.244769 -116.811808 167 30971ft 476kts
11-Feb-18 13:18 46.117911 -116.758449 167 30958ft 476kts
11-Feb-18 13:19 45.991029 -116.705385 167 30931ft 476kts
11-Feb-18 13:20 45.865658 -116.653218 167 30901ft 476kts
11-Feb-18 13:21 45.738374 -116.600522 167 30904ft 476kts
11-Feb-18 13:22 45.611775 -116.548337 167 30907ft 477kts
11-Feb-18 13:23 45.484385 -116.496074 167 30905ft 477kts
11-Feb-18 13:24 45.357453 -116.444246 167 30894ft 477kts
11-Feb-18 13:25 45.230237 -116.392534 167 30028ft 476kts
11-Feb-18 13:26 45.105363 -116.342004 167 29072ft 475kts
11-Feb-18 13:27 44.979639 -116.291336 169 28120ft 468kts
11-Feb-18 13:28 44.858089 -116.242553 169 26425ft 457kts
11-Feb-18 13:29 44.735223 -116.216360 190 23425ft 438kts
11-Feb-18 13:30 44.619475 -116.247601 194 21083ft 416kts
11-Feb-18 13:31 44.508932 -116.278339 194 18757ft 398kts
11-Feb-18 13:32 44.403697 -116.307552 193 16449ft 382kts
11-Feb-18 13:33 44.301492 -116.339895 194 14092ft 374kts
11-Feb-18 13:34 44.201695 -116.372431 194 11988ft 363kts
11-Feb-18 13:35 44.110337 -116.400212 193 11232ft 312kts
11-Feb-18 13:36 44.031763 -116.424110 193 10719ft 269kts
11-Feb-18 13:37 43.957999 -116.418286 171 9016ft 284kts
11-Feb-18 13:38 43.887515 -116.399493 171 8132ft 233kts
11-Feb-18 13:39 43.826256 -116.383357 171 7059ft 230kts
11-Feb-18 13:40 43.764613 -116.367273 172 6547ft 227kts
11-Feb-18 13:41 43.703487 -116.351938 172 5655ft 220kts
11-Feb-18 13:42 43.643390 -116.338438 173 4571ft 207kts
11-Feb-18 13:43 43.599877 -116.320073 141 4016ft 152kts
11-Feb-18 13:44 43.579918 -116.271849 119 3367ft 142kts
11-Feb-18 13:45 43.564302 -116.225744 117 2880ft 86kts
11-Feb-18 13:46 43.562194 -116.216549 355 2880ft 0kts
11-Feb-18 13:47 43.562194 -116.216549 355 2880ft 0kts
11-Feb-18 13:48 43.562194 -116.216549 355 2880ft 0kts
11-Feb-18 13:49 43.562194 -116.216549 355 2880ft 0kts
11-Feb-18 13:50 43.563191 -116.216693 355 2880ft 14kts
11-Feb-18 13:51 43.567470 -116.217181 346 2880ft 16kts
11-Feb-18 13:52 43.567592 -116.218709 204 2880ft 0kts
11-Feb-18 13:53 43.567592 -116.218709 204 2880ft 0kts

Navigation Log

Ident Type
Flight plan parsing failed, navigation log unavailable